createdAt,value
2023-02-24T00:00:32.590Z,99690.97
2023-02-24T00:02:01.729Z,99688.04
2023-02-24T00:03:11.534Z,99690.45
2023-02-24T00:04:14.834Z,99691.42
2023-02-24T00:05:17.718Z,99688.95
2023-02-24T00:06:20.616Z,99685.94
2023-02-24T00:07:23.548Z,99682.06
2023-02-24T00:08:26.488Z,99680.28
2023-02-24T00:09:31.159Z,99680.17
2023-02-24T00:10:34.385Z,99671.85
2023-02-24T00:11:43.406Z,99671.88
2023-02-24T00:12:47.263Z,99672.83
2023-02-24T00:13:50.118Z,99673.02
2023-02-24T00:14:52.997Z,99670.05
2023-02-24T00:16:05.401Z,99670.40
2023-02-24T00:17:10.266Z,99666.12
2023-02-24T00:18:13.382Z,99666.07
2023-02-24T00:19:21.130Z,99660.52
2023-02-24T00:20:24.961Z,99657.64
2023-02-24T00:21:28.587Z,99657.44
2023-02-24T00:22:31.417Z,99656.00
2023-02-24T00:23:38.590Z,99654.10
2023-02-24T00:24:49.734Z,99654.02
2023-02-24T00:25:59.960Z,99647.61
2023-02-24T00:27:07.990Z,99648.57
2023-02-24T00:28:14.395Z,99643.53
2023-02-24T00:29:18.399Z,99641.35
2023-02-24T00:30:24.187Z,99637.58
2023-02-24T00:31:31.179Z,99634.71
2023-02-24T00:32:36.296Z,99632.69
2023-02-24T00:33:39.814Z,99629.42
2023-02-24T00:34:43.468Z,99630.12
2023-02-24T00:35:46.639Z,99629.66
2023-02-24T00:36:49.569Z,99627.88
2023-02-24T00:37:54.831Z,99628.80
2023-02-24T00:39:00.954Z,99627.92
2023-02-24T00:40:11.112Z,99627.34
2023-02-24T00:41:17.263Z,99623.77
2023-02-24T00:42:22.903Z,99623.88
2023-02-24T00:43:25.807Z,99621.09
2023-02-24T00:44:33.117Z,99620.46
2023-02-24T00:45:37.827Z,99618.33
2023-02-24T00:46:46.031Z,99614.70
2023-02-24T00:47:48.915Z,99610.87
2023-02-24T00:48:56.835Z,99614.23
2023-02-24T00:49:59.689Z,99611.88
2023-02-24T00:51:03.236Z,99609.94
2023-02-24T00:52:06.715Z,99604.39
2023-02-24T00:53:09.690Z,99606.02
2023-02-24T00:54:16.309Z,99600.27
2023-02-24T00:55:19.333Z,99601.20
2023-02-24T00:56:28.708Z,99598.62
2023-02-24T00:57:33.423Z,99597.66
2023-02-24T00:58:36.497Z,99594.45
2023-02-24T00:59:39.848Z,99593.65
2023-02-24T01:00:44.135Z,99592.43
2023-02-24T01:01:49.561Z,99588.55
2023-02-24T01:02:52.956Z,99588.14
2023-02-24T01:03:57.178Z,99583.54
2023-02-24T01:05:01.322Z,99588.19
2023-02-24T01:06:04.416Z,99587.73
2023-02-24T01:07:11.249Z,99587.30
2023-02-24T01:08:21.464Z,99588.28
2023-02-24T01:09:27.261Z,99585.47
2023-02-24T01:10:30.116Z,99581.40
2023-02-24T01:11:54.264Z,99580.94
2023-02-24T01:12:57.133Z,99576.28
2023-02-24T01:14:00.593Z,99577.45
2023-02-24T01:15:05.099Z,99576.27
2023-02-24T01:16:08.837Z,99574.16
2023-02-24T01:17:11.735Z,99572.82
2023-02-24T01:18:14.633Z,99563.35
2023-02-24T01:19:19.322Z,99569.29
2023-02-24T01:20:22.206Z,99569.11
2023-02-24T01:21:25.141Z,99567.85
2023-02-24T01:22:28.031Z,99567.61
2023-02-24T01:23:31.002Z,99567.05
2023-02-24T01:24:38.093Z,99565.13
2023-02-24T01:25:47.311Z,99559.73
2023-02-24T01:26:50.464Z,99554.55
2023-02-24T01:27:54.091Z,99548.92
2023-02-24T01:28:57.605Z,99548.93
2023-02-24T01:30:01.327Z,99547.37
2023-02-24T01:31:06.332Z,99549.91
2023-02-24T01:32:17.076Z,99547.34
2023-02-24T01:33:21.787Z,99547.05
2023-02-24T01:34:28.241Z,99551.49
2023-02-24T01:35:35.322Z,99547.36
2023-02-24T01:36:40.901Z,99543.50
2023-02-24T01:37:45.480Z,99543.00
2023-02-24T01:38:51.617Z,99535.07
2023-02-24T01:39:54.470Z,99541.90
2023-02-24T01:40:59.362Z,99544.30
2023-02-24T01:42:04.802Z,99535.54
2023-02-24T01:43:10.895Z,99539.88
2023-02-24T01:44:14.548Z,99539.48
2023-02-24T01:45:21.916Z,99534.13
2023-02-24T01:46:33.220Z,99532.21
2023-02-24T01:47:36.164Z,99528.59
2023-02-24T01:48:39.126Z,99530.24
2023-02-24T01:49:49.600Z,99527.45
2023-02-24T01:50:53.091Z,99521.80
2023-02-24T01:52:06.185Z,99520.94
2023-02-24T01:53:09.082Z,99523.42
2023-02-24T01:54:17.506Z,99518.52
2023-02-24T01:55:25.673Z,99513.88
2023-02-24T01:56:31.298Z,99516.46
2023-02-24T01:57:38.802Z,99517.46
2023-02-24T01:58:42.749Z,99518.80
2023-02-24T01:59:48.671Z,99513.61
2023-02-24T02:00:52.687Z,99516.77
2023-02-24T02:02:04.214Z,99514.73
2023-02-24T02:03:27.082Z,99513.30
2023-02-24T02:04:54.882Z,99511.48
2023-02-24T02:06:04.391Z,99512.83
2023-02-24T02:07:11.065Z,99508.79
2023-02-24T02:08:16.591Z,99507.11
2023-02-24T02:09:20.659Z,99507.44
2023-02-24T02:10:29.398Z,99507.17
2023-02-24T02:11:32.693Z,99504.67
2023-02-24T02:12:44.500Z,99502.19
2023-02-24T02:13:50.545Z,99500.05
2023-02-24T02:14:56.458Z,99501.19
2023-02-24T02:16:13.827Z,99495.75
2023-02-24T02:17:42.880Z,99496.52
2023-02-24T02:18:56.374Z,99491.91
2023-02-24T02:20:20.228Z,99496.42
2023-02-24T02:21:49.762Z,99487.95
2023-02-24T02:23:09.625Z,99486.01
2023-02-24T02:24:26.314Z,99484.50
2023-02-24T02:26:18.937Z,99487.39
2023-02-24T02:27:45.406Z,99478.38
2023-02-24T02:29:02.043Z,99479.69
2023-02-24T02:30:17.624Z,99476.05
2023-02-24T02:31:32.320Z,99483.77
2023-02-24T02:32:38.432Z,99482.06
2023-02-24T02:34:19.754Z,99481.80
2023-02-24T02:35:31.733Z,99479.42
2023-02-24T02:36:34.684Z,99478.33
2023-02-24T02:37:56.451Z,99479.77
2023-02-24T02:39:22.264Z,99474.80
2023-02-24T02:40:44.860Z,99471.59
2023-02-24T02:41:55.034Z,99469.31
2023-02-24T02:43:12.124Z,99470.73
2023-02-24T02:44:19.706Z,99470.52
2023-02-24T02:46:05.299Z,99469.45
2023-02-24T02:47:24.852Z,99461.70
2023-02-24T02:48:47.890Z,99466.92
2023-02-24T02:50:03.065Z,99465.21
2023-02-24T02:51:17.003Z,99465.87
2023-02-24T02:52:29.220Z,99465.39
2023-02-24T02:53:46.580Z,99466.61
2023-02-24T02:55:21.719Z,99463.35
2023-02-24T02:56:35.318Z,99455.84
2023-02-24T02:57:47.231Z,99465.11
2023-02-24T02:58:54.338Z,99463.74
2023-02-24T03:00:35.299Z,99460.89
2023-02-24T03:01:43.900Z,99457.38
2023-02-24T03:02:52.515Z,99461.86
2023-02-24T03:04:01.313Z,99460.11
2023-02-24T03:05:10.051Z,99455.86
2023-02-24T03:06:22.314Z,99455.02
2023-02-24T03:07:31.399Z,99449.69
2023-02-24T03:08:38.236Z,99445.85
2023-02-24T03:09:45.722Z,99435.23
2023-02-24T03:10:52.004Z,99437.79
2023-02-24T03:12:02.377Z,99432.94
2023-02-24T03:13:10.136Z,99436.45
2023-02-24T03:14:16.951Z,99442.13
2023-02-24T03:15:22.787Z,99438.05
2023-02-24T03:16:27.338Z,99438.23
2023-02-24T03:17:36.038Z,99434.27
2023-02-24T03:19:04.314Z,99438.60
2023-02-24T03:20:17.532Z,99434.95
2023-02-24T03:21:29.050Z,99440.95
2023-02-24T03:22:42.535Z,99438.82
2023-02-24T03:23:50.643Z,99440.77
2023-02-24T03:24:54.093Z,99439.33
2023-02-24T03:26:19.114Z,99437.41
2023-02-24T03:27:34.340Z,99437.75
2023-02-24T03:28:41.838Z,99436.48
2023-02-24T03:29:50.819Z,99438.09
2023-02-24T03:31:03.901Z,99442.46
2023-02-24T03:32:17.357Z,99439.40
2023-02-24T03:33:29.867Z,99432.88
2023-02-24T03:34:55.383Z,99432.25
2023-02-24T03:36:01.972Z,99433.89
2023-02-24T03:37:06.062Z,99429.55
2023-02-24T03:38:11.182Z,99429.08
2023-02-24T03:39:15.879Z,99426.85
2023-02-24T03:40:28.988Z,99423.46
2023-02-24T03:41:41.118Z,99421.77
2023-02-24T03:42:48.272Z,99421.21
2023-02-24T03:43:52.315Z,99420.50
2023-02-24T03:44:58.434Z,99419.09
2023-02-24T03:46:01.780Z,99420.48
2023-02-24T03:47:05.697Z,99421.73
2023-02-24T03:48:11.948Z,99421.53
2023-02-24T03:49:16.874Z,99418.21
2023-02-24T03:50:22.213Z,99414.36
2023-02-24T03:51:31.723Z,99415.01
2023-02-24T03:52:52.768Z,99415.08
2023-02-24T03:53:58.563Z,99411.86
2023-02-24T03:55:10.952Z,99414.20
2023-02-24T03:56:14.089Z,99413.22
2023-02-24T03:57:54.834Z,99411.13
2023-02-24T03:59:23.984Z,99409.60
2023-02-24T04:00:34.432Z,99402.54
2023-02-24T04:01:55.912Z,99400.90
2023-02-24T04:03:03.612Z,99401.02
2023-02-24T04:04:19.253Z,99394.98
2023-02-24T04:05:33.568Z,99395.63
2023-02-24T04:06:51.274Z,99394.34
2023-02-24T04:08:07.704Z,99396.65
2023-02-24T04:09:33.350Z,99392.03
2023-02-24T04:10:58.703Z,99387.86
2023-02-24T04:12:21.556Z,99381.42
2023-02-24T04:13:43.362Z,99380.18
2023-02-24T04:14:58.625Z,99380.19
2023-02-24T04:16:12.167Z,99378.33
2023-02-24T04:17:26.757Z,99374.50
2023-02-24T04:18:32.769Z,99371.48
2023-02-24T04:19:40.633Z,99369.52
2023-02-24T04:20:45.520Z,99365.34
2023-02-24T04:21:50.171Z,99371.33
2023-02-24T04:23:09.493Z,99370.48
2023-02-24T04:24:15.870Z,99366.66
2023-02-24T04:25:25.006Z,99362.56
2023-02-24T04:26:29.879Z,99362.92
2023-02-24T04:27:33.311Z,99353.98
2023-02-24T04:28:50.151Z,99356.39
2023-02-24T04:29:57.539Z,99355.42
2023-02-24T04:31:06.328Z,99351.30
2023-02-24T04:32:13.298Z,99352.98
2023-02-24T04:33:17.299Z,99350.08
2023-02-24T04:34:20.711Z,99348.00
2023-02-24T04:35:26.849Z,99350.27
2023-02-24T04:36:34.179Z,99349.73
2023-02-24T04:37:38.645Z,99345.15
2023-02-24T04:38:41.573Z,99341.61
2023-02-24T04:39:46.204Z,99345.48
2023-02-24T04:40:57.501Z,99345.17
2023-02-24T04:42:01.842Z,99345.86
2023-02-24T04:43:04.744Z,99346.93
2023-02-24T04:44:07.580Z,99339.86
2023-02-24T04:45:13.080Z,99340.19
2023-02-24T04:46:16.642Z,99340.73
2023-02-24T04:47:20.100Z,99338.75
2023-02-24T04:48:23.076Z,99333.45
2023-02-24T04:49:26.754Z,99334.80
2023-02-24T04:50:35.971Z,99333.52
2023-02-24T04:51:42.417Z,99334.42
2023-02-24T04:52:47.610Z,99330.05
2023-02-24T04:53:50.476Z,99329.45
2023-02-24T04:54:53.323Z,99329.52
2023-02-24T04:55:56.491Z,99333.17
2023-02-24T04:56:59.589Z,99331.19
2023-02-24T04:58:02.897Z,99332.91
2023-02-24T04:59:05.853Z,99334.98
2023-02-24T05:00:32.649Z,99330.66
2023-02-24T05:01:35.535Z,99334.08
2023-02-24T05:02:38.477Z,99333.23
2023-02-24T05:03:44.923Z,99333.65
2023-02-24T05:04:49.781Z,99329.65
2023-02-24T05:06:00.345Z,99327.27
2023-02-24T05:07:03.486Z,99327.38
2023-02-24T05:08:08.983Z,99325.94
2023-02-24T05:09:14.682Z,99323.75
2023-02-24T05:10:19.023Z,99320.75
2023-02-24T05:11:22.186Z,99323.13
2023-02-24T05:12:25.176Z,99322.65
2023-02-24T05:13:31.867Z,99320.99
2023-02-24T05:14:35.570Z,99315.15
2023-02-24T05:15:41.841Z,99315.98
2023-02-24T05:16:46.837Z,99314.20
2023-02-24T05:17:52.594Z,99310.20
2023-02-24T05:19:15.513Z,99311.63
2023-02-24T05:20:37.076Z,99307.56
2023-02-24T05:21:41.784Z,99307.14
2023-02-24T05:22:45.021Z,99314.86
2023-02-24T05:23:47.862Z,99311.44
2023-02-24T05:24:50.761Z,99310.64
2023-02-24T05:25:55.163Z,99314.10
2023-02-24T05:26:59.334Z,99304.88
2023-02-24T05:28:04.204Z,99309.92
2023-02-24T05:29:07.732Z,99308.11
2023-02-24T05:30:11.546Z,99307.21
2023-02-24T05:31:20.615Z,99302.17
2023-02-24T05:32:25.578Z,99298.79
2023-02-24T05:33:29.373Z,99300.29
2023-02-24T05:34:33.502Z,99301.59
2023-02-24T05:35:36.948Z,99297.66
2023-02-24T05:36:40.954Z,99301.98
2023-02-24T05:37:45.011Z,99303.82
2023-02-24T05:38:50.056Z,99302.48
2023-02-24T05:39:56.948Z,99299.05
2023-02-24T05:41:11.546Z,99299.48
2023-02-24T05:42:14.418Z,99300.02
2023-02-24T05:43:18.331Z,99299.18
2023-02-24T05:44:23.865Z,99297.57
2023-02-24T05:45:30.476Z,99302.14
2023-02-24T05:46:35.037Z,99302.00
2023-02-24T05:47:40.201Z,99300.65
2023-02-24T05:48:44.164Z,99300.81
2023-02-24T05:49:48.164Z,99302.58
2023-02-24T05:50:55.156Z,99302.33
2023-02-24T05:52:01.073Z,99303.20
2023-02-24T05:53:03.894Z,99299.27
2023-02-24T05:54:10.118Z,99300.36
2023-02-24T05:55:14.325Z,99300.97
2023-02-24T05:56:19.264Z,99303.70
2023-02-24T05:57:24.972Z,99304.85
2023-02-24T05:58:29.273Z,99306.62
2023-02-24T05:59:33.532Z,99307.96
2023-02-24T06:00:39.337Z,99304.45
2023-02-24T06:01:42.492Z,99300.50
2023-02-24T06:02:49.870Z,99299.22
2023-02-24T06:03:54.508Z,99301.16
2023-02-24T06:04:58.956Z,99301.60
2023-02-24T06:06:09.189Z,99299.41
2023-02-24T06:07:22.946Z,99300.82
2023-02-24T06:08:26.337Z,99296.42
2023-02-24T06:09:29.213Z,99296.44
2023-02-24T06:10:34.499Z,99292.30
2023-02-24T06:11:40.690Z,99292.27
2023-02-24T06:12:44.240Z,99287.80
2023-02-24T06:13:48.067Z,99289.69
2023-02-24T06:14:53.206Z,99286.70
2023-02-24T06:15:57.289Z,99286.28
2023-02-24T06:17:02.782Z,99288.11
2023-02-24T06:18:07.199Z,99290.39
2023-02-24T06:19:12.668Z,99286.86
2023-02-24T06:20:16.075Z,99290.52
2023-02-24T06:21:19.570Z,99288.33
2023-02-24T06:22:25.248Z,99289.21
2023-02-24T06:23:28.497Z,99284.61
2023-02-24T06:24:33.440Z,99287.45
2023-02-24T06:25:38.611Z,99286.61
2023-02-24T06:26:43.423Z,99282.16
2023-02-24T06:27:46.361Z,99282.86
2023-02-24T06:28:54.139Z,99282.92
2023-02-24T06:29:57.772Z,99282.01
2023-02-24T06:31:06.996Z,99275.58
2023-02-24T06:32:10.328Z,99275.04
2023-02-24T06:33:13.905Z,99272.67
2023-02-24T06:34:18.585Z,99273.39
2023-02-24T06:35:21.540Z,99272.88
2023-02-24T06:36:24.400Z,99271.34
2023-02-24T06:37:28.288Z,99274.31
2023-02-24T06:38:32.870Z,99274.58
2023-02-24T06:39:36.890Z,99273.84
2023-02-24T06:40:40.475Z,99275.03
2023-02-24T06:41:43.305Z,99266.08
2023-02-24T06:42:54.071Z,99268.08
2023-02-24T06:43:56.992Z,99262.33
2023-02-24T06:44:59.933Z,99269.20
2023-02-24T06:46:02.850Z,99272.48
2023-02-24T06:47:08.017Z,99270.55
2023-02-24T06:48:12.094Z,99264.34
2023-02-24T06:49:15.003Z,99264.45
2023-02-24T06:50:23.446Z,99263.81
2023-02-24T06:51:30.323Z,99260.65
2023-02-24T06:52:34.216Z,99265.27
2023-02-24T06:53:43.353Z,99261.88
2023-02-24T06:54:52.459Z,99261.35
2023-02-24T06:55:55.944Z,99260.33
2023-02-24T06:56:59.446Z,99259.08
2023-02-24T06:58:05.516Z,99257.15
2023-02-24T06:59:13.059Z,99262.54
2023-02-24T07:00:25.187Z,99261.19
2023-02-24T07:01:29.218Z,99260.95
2023-02-24T07:02:39.670Z,99263.85
2023-02-24T07:04:02.428Z,99261.02
2023-02-24T07:05:06.452Z,99253.73
2023-02-24T07:06:24.021Z,99261.77
2023-02-24T07:07:29.231Z,99261.20
2023-02-24T07:08:32.167Z,99263.41
2023-02-24T07:09:35.709Z,99253.89
2023-02-24T07:10:39.145Z,99257.77
2023-02-24T07:11:51.996Z,99259.48
2023-02-24T07:12:54.837Z,99256.44
2023-02-24T07:13:58.751Z,99254.78
2023-02-24T07:15:01.601Z,99253.71
2023-02-24T07:16:07.444Z,99251.25
2023-02-24T07:17:10.440Z,99249.08
2023-02-24T07:18:15.078Z,99253.17
2023-02-24T07:19:18.106Z,99242.88
2023-02-24T07:20:25.595Z,99245.68
2023-02-24T07:21:46.372Z,99243.91
2023-02-24T07:22:49.185Z,99241.26
2023-02-24T07:23:58.883Z,99238.92
2023-02-24T07:25:02.616Z,99243.92
2023-02-24T07:26:14.105Z,99242.59
2023-02-24T07:27:23.593Z,99239.48
2023-02-24T07:28:27.824Z,99240.55
2023-02-24T07:29:33.104Z,99240.50
2023-02-24T07:30:38.612Z,99238.90
2023-02-24T07:31:43.048Z,99238.95
2023-02-24T07:32:48.658Z,99236.65
2023-02-24T07:34:02.210Z,99239.83
2023-02-24T07:35:05.436Z,99237.95
2023-02-24T07:36:08.835Z,99241.04
2023-02-24T07:37:12.425Z,99239.71
2023-02-24T07:38:17.472Z,99238.05
2023-02-24T07:39:23.227Z,99237.35
2023-02-24T07:40:26.151Z,99238.73
2023-02-24T07:41:31.066Z,99236.11
2023-02-24T07:42:35.482Z,99232.73
2023-02-24T07:43:42.172Z,99234.67
2023-02-24T07:44:46.823Z,99234.52
2023-02-24T07:45:50.117Z,99231.72
2023-02-24T07:46:53.437Z,99232.96
2023-02-24T07:47:57.263Z,99230.70
2023-02-24T07:49:00.086Z,99229.48
2023-02-24T07:50:03.332Z,99229.27
2023-02-24T07:51:08.269Z,99227.92
2023-02-24T07:52:11.786Z,99232.60
2023-02-24T07:53:16.563Z,99228.95
2023-02-24T07:54:21.700Z,99224.97
2023-02-24T07:55:25.977Z,99224.88
2023-02-24T07:56:31.198Z,99226.79
2023-02-24T07:57:34.006Z,99225.33
2023-02-24T07:58:36.849Z,99225.40
2023-02-24T07:59:39.745Z,99226.16
2023-02-24T08:01:06.033Z,99226.38
2023-02-24T08:02:11.507Z,99223.27
2023-02-24T08:03:14.616Z,99222.13
2023-02-24T08:04:20.582Z,99224.87
2023-02-24T08:05:24.694Z,99224.23
2023-02-24T08:06:39.225Z,99217.88
2023-02-24T08:07:42.727Z,99216.81
2023-02-24T08:09:16.772Z,99220.47
2023-02-24T08:10:26.703Z,99215.52
2023-02-24T08:11:35.760Z,99212.67
2023-02-24T08:12:42.888Z,99212.08
2023-02-24T08:13:45.861Z,99209.19
2023-02-24T08:14:51.626Z,99213.80
2023-02-24T08:15:58.123Z,99206.98
2023-02-24T08:17:05.533Z,99207.20
2023-02-24T08:18:09.304Z,99204.58
2023-02-24T08:19:20.352Z,99204.55
2023-02-24T08:20:25.242Z,99200.75
2023-02-24T08:21:28.157Z,99202.79
2023-02-24T08:22:37.460Z,99200.05
2023-02-24T08:23:44.811Z,99198.39
2023-02-24T08:25:00.876Z,99198.13
2023-02-24T08:26:03.895Z,99189.65
2023-02-24T08:27:06.845Z,99192.61
2023-02-24T08:28:11.816Z,99194.71
2023-02-24T08:29:14.937Z,99187.89
2023-02-24T08:30:23.982Z,99190.20
2023-02-24T08:31:27.111Z,99184.23
2023-02-24T08:32:43.567Z,99184.92
2023-02-24T08:33:46.641Z,99183.55
2023-02-24T08:34:50.721Z,99181.50
2023-02-24T08:36:01.610Z,99182.48
2023-02-24T08:37:06.137Z,99180.60
2023-02-24T08:38:16.115Z,99184.29
2023-02-24T08:39:19.384Z,99182.85
2023-02-24T08:40:31.977Z,99179.68
2023-02-24T08:41:51.398Z,99177.58
2023-02-24T08:42:54.289Z,99179.83
2023-02-24T08:43:57.157Z,99180.81
2023-02-24T08:45:01.930Z,99179.67
2023-02-24T08:46:13.992Z,99176.45
2023-02-24T08:47:21.257Z,99174.09
2023-02-24T08:48:26.643Z,99174.90
2023-02-24T08:49:29.540Z,99171.36
2023-02-24T08:50:33.963Z,99170.83
2023-02-24T08:51:43.938Z,99172.45
2023-02-24T08:52:46.982Z,99170.83
2023-02-24T08:53:56.176Z,99169.65
2023-02-24T08:55:01.791Z,99171.55
2023-02-24T08:56:09.707Z,99169.40
2023-02-24T08:57:15.370Z,99163.48
2023-02-24T08:58:27.215Z,99164.66
2023-02-24T08:59:40.405Z,99160.75
2023-02-24T09:00:49.239Z,99159.25
2023-02-24T09:02:04.256Z,99159.85
2023-02-24T09:03:08.620Z,99158.98
2023-02-24T09:04:19.232Z,99156.99
2023-02-24T09:05:24.429Z,99157.42
2023-02-24T09:06:53.847Z,99154.95
2023-02-24T09:07:59.219Z,99156.52
2023-02-24T09:09:20.469Z,99154.85
2023-02-24T09:10:23.298Z,99153.40
2023-02-24T09:11:26.184Z,99151.05
2023-02-24T09:12:30.780Z,99149.17
2023-02-24T09:13:43.197Z,99146.00
2023-02-24T09:14:46.078Z,99145.94
2023-02-24T09:15:50.278Z,99142.92
2023-02-24T09:17:03.626Z,99144.77
2023-02-24T09:18:14.438Z,99143.66
2023-02-24T09:19:41.368Z,99144.58
2023-02-24T09:20:56.500Z,99142.27
2023-02-24T09:22:21.458Z,99144.52
2023-02-24T09:23:30.363Z,99136.83
2023-02-24T09:24:33.255Z,99136.08
2023-02-24T09:25:41.794Z,99133.02
2023-02-24T09:26:44.711Z,99132.53
2023-02-24T09:27:55.150Z,99128.77
2023-02-24T09:28:58.220Z,99127.15
2023-02-24T09:30:08.254Z,99129.08
2023-02-24T09:31:11.328Z,99132.95
2023-02-24T09:32:15.041Z,99122.88
2023-02-24T09:33:23.798Z,99122.82
2023-02-24T09:34:30.215Z,99121.64
2023-02-24T09:35:37.041Z,99123.21
2023-02-24T09:36:45.203Z,99120.91
2023-02-24T09:37:48.075Z,99116.27
2023-02-24T09:38:59.905Z,99120.80
2023-02-24T09:40:25.656Z,99119.84
2023-02-24T09:41:53.857Z,99113.95
2023-02-24T09:42:58.439Z,99113.09
2023-02-24T09:44:18.451Z,99117.31
2023-02-24T09:45:33.469Z,99111.92
2023-02-24T09:46:53.944Z,99109.93
2023-02-24T09:47:57.560Z,99120.00
2023-02-24T09:49:13.022Z,99120.92
2023-02-24T09:50:40.311Z,99120.35
2023-02-24T09:51:44.441Z,99120.67
2023-02-24T09:52:52.147Z,99116.73
2023-02-24T09:53:57.133Z,99115.99
2023-02-24T09:55:19.015Z,99116.01
2023-02-24T09:56:27.740Z,99115.41
2023-02-24T09:57:37.539Z,99116.44
2023-02-24T09:58:48.158Z,99114.39
2023-02-24T10:00:23.165Z,99115.36
2023-02-24T10:01:52.858Z,99112.95
2023-02-24T10:03:20.962Z,99106.24
2023-02-24T10:04:49.458Z,99109.48
2023-02-24T10:06:12.503Z,99109.15
2023-02-24T10:07:27.568Z,99108.55
2023-02-24T10:08:38.372Z,99104.79
2023-02-24T10:09:50.451Z,99100.91
2023-02-24T10:11:09.541Z,99104.73
2023-02-24T10:12:29.459Z,99101.02
2023-02-24T10:13:33.332Z,99100.96
2023-02-24T10:15:16.963Z,99104.89
2023-02-24T10:16:24.364Z,99104.89
2023-02-24T10:17:40.387Z,99107.46
2023-02-24T10:19:15.203Z,99100.77
2023-02-24T10:20:44.322Z,99104.06
2023-02-24T10:22:03.364Z,99105.20
2023-02-24T10:23:18.122Z,99096.34
2023-02-24T10:24:47.946Z,99100.42
2023-02-24T10:26:06.809Z,99097.73
2023-02-24T10:27:18.125Z,99100.05
2023-02-24T10:28:46.159Z,99093.16
2023-02-24T10:30:05.751Z,99095.52
2023-02-24T10:31:25.862Z,99096.56
2023-02-24T10:32:48.185Z,99095.53
2023-02-24T10:34:06.177Z,99092.56
2023-02-24T10:35:18.194Z,99092.42
2023-02-24T10:36:35.459Z,99089.73
2023-02-24T10:37:38.911Z,99080.92
2023-02-24T10:38:45.474Z,99090.41
2023-02-24T10:39:51.872Z,99091.91
2023-02-24T10:40:59.731Z,99090.58
2023-02-24T10:42:17.626Z,99088.91
2023-02-24T10:43:30.324Z,99084.71
2023-02-24T10:44:36.670Z,99085.78
2023-02-24T10:45:45.477Z,99088.25
2023-02-24T10:47:11.475Z,99082.85
2023-02-24T10:48:40.576Z,99079.44
2023-02-24T10:49:59.056Z,99078.95
2023-02-24T10:51:11.444Z,99074.00
2023-02-24T10:52:36.622Z,99073.36
2023-02-24T10:53:46.124Z,99070.89
2023-02-24T10:55:08.528Z,99073.36
2023-02-24T10:56:26.590Z,99071.10
2023-02-24T10:57:47.475Z,99068.57
2023-02-24T10:59:23.119Z,99065.08
2023-02-24T11:00:48.827Z,99065.66
2023-02-24T11:01:59.187Z,99060.66
2023-02-24T11:03:09.962Z,99059.70
2023-02-24T11:04:33.129Z,99056.05
2023-02-24T11:06:01.059Z,99054.64
2023-02-24T11:07:12.127Z,99047.33
2023-02-24T11:08:37.087Z,99051.11
2023-02-24T11:09:52.331Z,99046.48
2023-02-24T11:11:07.501Z,99047.03
2023-02-24T11:12:28.860Z,99049.35
2023-02-24T11:13:50.468Z,99040.59
2023-02-24T11:15:20.182Z,99035.71
2023-02-24T11:16:42.219Z,99035.05
2023-02-24T11:17:58.327Z,99031.08
2023-02-24T11:19:01.314Z,99032.86
2023-02-24T11:20:22.835Z,99027.97
2023-02-24T11:21:27.865Z,99029.74
2023-02-24T11:22:36.433Z,99024.16
2023-02-24T11:23:56.410Z,99020.66
2023-02-24T11:25:07.188Z,99020.88
2023-02-24T11:26:23.546Z,99019.64
2023-02-24T11:27:27.869Z,99014.71
2023-02-24T11:28:39.482Z,99016.85
2023-02-24T11:30:01.584Z,99015.99
2023-02-24T11:31:23.830Z,99014.17
2023-02-24T11:32:33.134Z,99009.36
2023-02-24T11:34:00.974Z,99006.78
2023-02-24T11:35:31.426Z,98998.48
2023-02-24T11:36:50.050Z,99000.39
2023-02-24T11:38:07.926Z,99000.23
2023-02-24T11:39:42.287Z,98995.98
2023-02-24T11:40:53.479Z,98993.58
2023-02-24T11:42:02.186Z,98991.10
2023-02-24T11:43:19.296Z,98994.12
2023-02-24T11:44:28.398Z,98991.73
2023-02-24T11:45:43.376Z,98987.12
2023-02-24T11:46:52.176Z,98990.70
2023-02-24T11:48:04.975Z,98987.59
2023-02-24T11:49:23.137Z,98983.60
2023-02-24T11:50:37.131Z,98985.81
2023-02-24T11:51:40.339Z,98981.65
2023-02-24T11:52:47.804Z,98978.58
2023-02-24T11:54:11.721Z,98981.73
2023-02-24T11:55:27.421Z,98978.29
2023-02-24T11:56:39.135Z,98979.39
2023-02-24T11:57:48.431Z,98978.15
2023-02-24T11:59:28.847Z,98978.70
2023-02-24T12:00:37.377Z,98967.13
2023-02-24T12:01:52.383Z,98974.36
2023-02-24T12:03:18.360Z,98978.27
2023-02-24T12:04:28.281Z,98969.42
2023-02-24T12:05:37.132Z,98971.05
2023-02-24T12:07:02.151Z,98968.69
2023-02-24T12:08:29.111Z,98963.09
2023-02-24T12:09:43.604Z,98955.70
2023-02-24T12:10:54.008Z,98958.10
2023-02-24T12:12:16.897Z,98956.04
2023-02-24T12:13:28.261Z,98950.94
2023-02-24T12:14:34.708Z,98956.96
2023-02-24T12:16:03.211Z,98949.17
2023-02-24T12:17:44.468Z,98948.36
2023-02-24T12:18:59.154Z,98944.05
2023-02-24T12:20:13.590Z,98944.75
2023-02-24T12:21:36.177Z,98946.31
2023-02-24T12:22:52.713Z,98950.78
2023-02-24T12:23:55.576Z,98948.70
2023-02-24T12:24:58.748Z,98947.98
2023-02-24T12:26:16.571Z,98947.67
2023-02-24T12:27:36.662Z,98948.10
2023-02-24T12:29:09.934Z,98949.55
2023-02-24T12:30:38.323Z,98950.46
2023-02-24T12:32:16.087Z,98942.80
2023-02-24T12:33:31.128Z,98938.35
2023-02-24T12:34:43.554Z,98937.38
2023-02-24T12:36:03.045Z,98934.52
2023-02-24T12:37:24.018Z,98927.70
2023-02-24T12:38:55.734Z,98930.39
2023-02-24T12:40:01.385Z,98937.86
2023-02-24T12:41:13.223Z,98934.41
2023-02-24T12:43:11.958Z,98929.73
2023-02-24T12:44:36.992Z,98929.73
2023-02-24T12:45:55.084Z,98923.92
2023-02-24T12:47:07.123Z,98919.89
2023-02-24T12:48:37.417Z,98918.65
2023-02-24T12:50:16.743Z,98920.31
2023-02-24T12:52:10.277Z,98922.83
2023-02-24T12:53:31.556Z,98922.77
2023-02-24T12:55:03.861Z,98916.60
2023-02-24T12:56:24.372Z,98912.66
2023-02-24T12:57:56.263Z,98906.09
2023-02-24T12:59:05.576Z,98906.34
2023-02-24T13:00:20.742Z,98905.18
2023-02-24T13:01:47.811Z,98904.17
2023-02-24T13:03:00.495Z,98902.33
2023-02-24T13:04:48.050Z,98901.04
2023-02-24T13:06:10.612Z,98898.77
2023-02-24T13:07:35.838Z,98894.91
2023-02-24T13:08:42.390Z,98891.90
2023-02-24T13:10:12.379Z,98887.55
2023-02-24T13:11:37.250Z,98885.91
2023-02-24T13:12:46.586Z,98885.05
2023-02-24T13:13:59.650Z,98884.36
2023-02-24T13:15:15.594Z,98879.40
2023-02-24T13:16:32.286Z,98874.34
2023-02-24T13:17:51.074Z,98872.98
2023-02-24T13:19:05.251Z,98869.23
2023-02-24T13:20:31.860Z,98869.49
2023-02-24T13:21:34.955Z,98869.56
2023-02-24T13:22:42.326Z,98872.95
2023-02-24T13:23:59.206Z,98866.11
2023-02-24T13:25:08.258Z,98865.41
2023-02-24T13:26:11.150Z,98862.89
2023-02-24T13:27:21.413Z,98864.23
2023-02-24T13:28:33.350Z,98863.48
2023-02-24T13:29:47.735Z,98868.59
2023-02-24T13:31:07.256Z,98868.64
2023-02-24T13:32:28.501Z,98866.80
2023-02-24T13:33:43.678Z,98860.89
2023-02-24T13:34:46.616Z,98857.44
2023-02-24T13:35:53.449Z,98858.24
2023-02-24T13:36:57.448Z,98857.65
2023-02-24T13:38:24.173Z,98851.73
2023-02-24T13:39:41.564Z,98851.26
2023-02-24T13:40:44.433Z,98847.54
2023-02-24T13:41:47.666Z,98844.73
2023-02-24T13:42:56.410Z,98842.45
2023-02-24T13:44:03.653Z,98848.76
2023-02-24T13:45:15.122Z,98845.16
2023-02-24T13:46:19.762Z,98844.23
2023-02-24T13:47:37.266Z,98844.00
2023-02-24T13:49:10.728Z,98834.77
2023-02-24T13:50:31.397Z,98837.83